Terminal Aerodrome Forecast
Issued by NWS

Home | Current Version | Previous Version | Graphics & Text | Print | Product List | Glossary On
Versions: 1 2 3 4 5 6 7 8 9 10 11 12 13 14 15 16 17 18
919
FTUS43 KTOP 261113 AAA
TAFMHK
TAF AMD
KMHK 261113Z 2611/2706 01002KT 5SM BR FEW250
      TEMPO 2611/2613 1SM BR
     FM261400 01008KT P6SM SCT025
     FM270000 04004KT P6SM FEW250=

USA.gov is the U.S. government's official web portal to all federal, state and local government web resources and services.